createdAt,value
2023-04-26T00:02:18.532Z,100536.47
2023-04-26T00:07:20.132Z,100542.91
2023-04-26T00:12:21.910Z,100544.09
2023-04-26T00:17:23.049Z,100540.31
2023-04-26T00:22:24.916Z,100537.09
2023-04-26T00:27:26.115Z,100547.53
2023-04-26T00:32:27.418Z,100492.09
2023-04-26T00:37:28.642Z,100527.31
2023-04-26T00:42:29.878Z,100534.53
2023-04-26T00:47:31.192Z,100529.50
2023-04-26T00:52:32.450Z,100521.84
2023-04-26T00:57:33.658Z,100528.78
2023-04-26T01:02:34.996Z,100527.19
2023-04-26T01:07:36.980Z,100533.28
2023-04-26T01:12:38.177Z,100538.59
2023-04-26T01:17:39.614Z,100539.88
2023-04-26T01:22:41.448Z,100540.66
2023-04-26T01:27:42.652Z,100543.16
2023-04-26T01:32:43.875Z,100551.28
2023-04-26T01:37:45.325Z,100545.91
2023-04-26T01:42:46.510Z,100544.47
2023-04-26T01:47:47.693Z,100550.78
2023-04-26T01:52:48.946Z,100540.44
2023-04-26T01:57:50.206Z,100536.16
2023-04-26T02:02:51.548Z,100535.81
2023-04-26T02:07:52.750Z,100541.94
2023-04-26T02:12:54.029Z,100534.06
2023-04-26T02:17:55.772Z,100536.06
2023-04-26T02:22:57.079Z,100535.06
2023-04-26T02:27:58.296Z,100541.03
2023-04-26T02:32:59.561Z,100546.44
2023-04-26T02:38:00.766Z,100542.16
2023-04-26T02:43:02.194Z,100531.59
2023-04-26T02:48:03.405Z,100530.78
2023-04-26T02:53:04.686Z,100530.88
2023-04-26T02:58:06.368Z,100529.66
2023-04-26T03:03:07.745Z,100524.16
2023-04-26T03:08:09.123Z,100529.34
2023-04-26T03:13:10.321Z,100528.06
2023-04-26T03:18:11.489Z,100532.34
2023-04-26T03:23:12.784Z,100525.25
2023-04-26T03:28:13.994Z,100523.91
2023-04-26T03:33:15.225Z,100524.38
2023-04-26T03:38:16.497Z,100516.16
2023-04-26T03:43:17.635Z,100516.47
2023-04-26T03:48:18.837Z,100516.56
2023-04-26T03:53:20.539Z,100526.56
2023-04-26T03:58:21.765Z,100518.91
2023-04-26T04:03:23.093Z,100518.13
2023-04-26T04:08:24.364Z,100520.13
2023-04-26T04:13:25.519Z,100526.00
2023-04-26T04:18:26.656Z,100519.78
2023-04-26T04:23:28.032Z,100526.22
2023-04-26T04:28:29.849Z,100530.81
2023-04-26T04:33:31.054Z,100530.16
2023-04-26T04:38:32.225Z,100545.69
2023-04-26T04:43:33.833Z,100539.72
2023-04-26T04:48:35.826Z,100541.31
2023-04-26T04:53:37.276Z,100552.78
2023-04-26T04:58:38.539Z,100550.09
2023-04-26T05:03:39.878Z,100556.19
2023-04-26T05:08:41.445Z,100559.22
2023-04-26T05:13:42.664Z,100572.06
2023-04-26T05:18:43.937Z,100574.56
2023-04-26T05:23:45.274Z,100576.03
2023-04-26T05:28:46.564Z,100582.69
2023-04-26T05:33:47.724Z,100590.22
2023-04-26T05:38:48.894Z,100586.41
2023-04-26T05:43:50.647Z,100592.38
2023-04-26T05:48:52.281Z,100592.16
2023-04-26T05:53:53.861Z,100605.19
2023-04-26T05:58:55.125Z,100604.84
2023-04-26T06:03:59.824Z,100609.78
2023-04-26T06:09:02.061Z,100617.41
2023-04-26T06:14:03.222Z,100622.44
2023-04-26T06:19:04.394Z,100621.44
2023-04-26T06:24:05.538Z,100620.06
2023-04-26T06:29:07.146Z,100623.25
2023-04-26T06:34:08.553Z,100627.44
2023-04-26T06:39:09.866Z,100626.72
2023-04-26T06:44:11.145Z,100631.16
2023-04-26T06:49:12.718Z,100629.38
2023-04-26T06:54:13.951Z,100633.06
2023-04-26T06:59:15.214Z,100623.09
2023-04-26T07:04:18.791Z,100625.41
2023-04-26T07:09:20.126Z,100623.75
2023-04-26T07:14:21.376Z,100628.69
2023-04-26T07:19:23.283Z,100625.91
2023-04-26T07:24:24.740Z,100630.53
2023-04-26T07:29:26.177Z,100631.28
2023-04-26T07:34:27.332Z,100624.84
2023-04-26T07:39:28.572Z,100624.66
2023-04-26T07:44:29.838Z,100624.47
2023-04-26T07:49:31.113Z,100617.81
2023-04-26T07:54:32.318Z,100618.97
2023-04-26T07:59:33.542Z,100621.88
2023-04-26T08:04:34.949Z,100632.34
2023-04-26T08:09:36.417Z,100622.72
2023-04-26T08:14:38.582Z,100621.66
2023-04-26T08:19:39.907Z,100609.63
2023-04-26T08:24:41.098Z,100610.66
2023-04-26T08:29:42.970Z,100615.34
2023-04-26T08:34:44.205Z,100614.28
2023-04-26T08:39:45.521Z,100610.00
2023-04-26T08:44:46.775Z,100615.19
2023-04-26T08:49:48.877Z,100619.03
2023-04-26T08:54:50.208Z,100612.53
2023-04-26T08:59:52.754Z,100611.31
2023-04-26T09:04:54.222Z,100608.44
2023-04-26T09:09:55.468Z,100612.25
2023-04-26T09:14:56.775Z,100624.97
2023-04-26T09:19:58.037Z,100623.31
2023-04-26T09:24:59.309Z,100611.91
2023-04-26T09:30:00.565Z,100618.00
2023-04-26T09:35:01.748Z,100604.94
2023-04-26T09:40:04.495Z,100602.28
2023-04-26T09:45:05.901Z,100595.81
2023-04-26T09:50:07.725Z,100603.03
2023-04-26T09:55:11.073Z,100593.50
2023-04-26T10:00:15.238Z,100587.69
2023-04-26T10:05:16.484Z,100599.56
2023-04-26T10:10:17.777Z,100581.53
2023-04-26T10:15:19.194Z,100580.19
2023-04-26T10:20:20.560Z,100576.06
2023-04-26T10:25:21.730Z,100579.72
2023-04-26T10:30:23.203Z,100568.03
2023-04-26T10:35:24.508Z,100563.84
2023-04-26T10:40:25.736Z,100568.72
2023-04-26T10:45:27.539Z,100567.97
2023-04-26T10:50:28.804Z,100564.19
2023-04-26T10:55:29.957Z,100564.31
2023-04-26T11:00:32.687Z,100570.72
2023-04-26T11:05:34.379Z,100565.69
2023-04-26T11:10:36.798Z,100560.56
2023-04-26T11:15:38.061Z,100549.50
2023-04-26T11:20:39.306Z,100546.78
2023-04-26T11:25:40.505Z,100541.47
2023-04-26T11:30:41.775Z,100533.31
2023-04-26T11:35:43.031Z,100528.78
2023-04-26T11:40:44.210Z,100536.06
2023-04-26T11:45:45.392Z,100531.22
2023-04-26T11:50:47.016Z,100526.56
2023-04-26T11:55:48.262Z,100518.59
2023-04-26T12:00:49.405Z,100523.94
2023-04-26T12:05:50.589Z,100521.91
2023-04-26T12:10:51.809Z,100521.69
2023-04-26T12:15:52.986Z,100529.81
2023-04-26T12:20:54.114Z,100534.69
2023-04-26T12:25:55.603Z,100536.09
2023-04-26T12:30:56.828Z,100537.44
2023-04-26T12:36:00.213Z,100528.09
2023-04-26T12:41:01.662Z,100532.63
2023-04-26T12:46:02.911Z,100531.34
2023-04-26T12:51:04.624Z,100531.44
2023-04-26T12:56:05.904Z,100512.44
2023-04-26T13:01:07.170Z,100521.72
2023-04-26T13:06:08.496Z,100511.63
2023-04-26T13:11:09.705Z,100513.97
2023-04-26T13:16:11.727Z,100515.72
2023-04-26T13:21:13.253Z,100513.69
2023-04-26T13:26:17.517Z,100509.19
2023-04-26T13:31:19.193Z,100519.00
2023-04-26T13:36:20.641Z,100510.97
2023-04-26T13:41:22.386Z,100514.94
2023-04-26T13:46:23.698Z,100508.88
2023-04-26T13:51:25.177Z,100510.81
2023-04-26T13:56:26.461Z,100505.22
2023-04-26T14:01:27.693Z,100488.06
2023-04-26T14:06:28.909Z,100496.19
2023-04-26T14:11:30.297Z,100492.81
2023-04-26T14:16:31.690Z,100461.91
2023-04-26T14:21:32.935Z,100500.13
2023-04-26T14:26:34.093Z,100487.44
2023-04-26T14:31:35.479Z,100494.53
2023-04-26T14:36:36.889Z,100489.94
2023-04-26T14:41:38.033Z,100490.84
2023-04-26T14:46:39.322Z,100487.69
2023-04-26T14:51:40.736Z,100490.81
2023-04-26T14:56:42.220Z,100481.81
2023-04-26T15:01:44.178Z,100478.16
2023-04-26T15:06:45.629Z,100472.13
2023-04-26T15:11:46.785Z,100464.78
2023-04-26T15:16:48.080Z,100464.06
2023-04-26T15:21:49.764Z,100458.91
2023-04-26T15:26:50.968Z,100461.78
2023-04-26T15:31:52.419Z,100452.75
2023-04-26T15:36:53.581Z,100452.66
2023-04-26T15:41:54.812Z,100449.81
2023-04-26T15:46:56.144Z,100448.03
2023-04-26T15:51:57.316Z,100448.69
2023-04-26T15:56:58.756Z,100443.09
2023-04-26T16:02:00.118Z,100443.81
2023-04-26T16:07:01.507Z,100450.66
2023-04-26T16:12:03.559Z,100449.63
2023-04-26T16:17:05.059Z,100453.91
2023-04-26T16:22:06.460Z,100442.25
2023-04-26T16:27:07.595Z,100445.19
2023-04-26T16:32:08.833Z,100451.44
2023-04-26T16:37:10.065Z,100439.03
2023-04-26T16:42:11.690Z,100434.47
2023-04-26T16:47:12.912Z,100431.72
2023-04-26T16:52:14.085Z,100434.81
2023-04-26T16:57:15.262Z,100436.75
2023-04-26T17:02:16.489Z,100438.63
2023-04-26T17:07:17.717Z,100434.97
2023-04-26T17:12:18.887Z,100448.69
2023-04-26T17:17:20.140Z,100446.00
2023-04-26T17:22:21.442Z,100451.50
2023-04-26T17:27:24.688Z,100456.41
2023-04-26T17:32:25.905Z,100455.84
2023-04-26T17:37:28.474Z,100453.91
2023-04-26T17:42:29.729Z,100457.25
2023-04-26T17:47:31.319Z,100430.53
2023-04-26T17:52:32.526Z,100460.91
2023-04-26T17:57:33.751Z,100469.50
2023-04-26T18:02:35.166Z,100477.75
2023-04-26T18:07:36.526Z,100477.53
2023-04-26T18:12:38.012Z,100474.56
2023-04-26T18:17:39.259Z,100474.94
2023-04-26T18:22:40.613Z,100476.31
2023-04-26T18:27:41.811Z,100477.41
2023-04-26T18:32:43.113Z,100478.72
2023-04-26T18:37:44.413Z,100483.59
2023-04-26T18:42:45.685Z,100489.69
2023-04-26T18:47:47.089Z,100492.91
2023-04-26T18:52:48.312Z,100501.34
2023-04-26T18:57:49.548Z,100496.13
2023-04-26T19:02:51.164Z,100505.59
2023-04-26T19:07:55.665Z,100518.19
2023-04-26T19:12:57.016Z,100509.84
2023-04-26T19:17:58.402Z,100520.38
2023-04-26T19:22:59.779Z,100526.16
2023-04-26T19:28:00.937Z,100533.53
2023-04-26T19:33:02.259Z,100524.91
2023-04-26T19:38:06.638Z,100529.66
2023-04-26T19:43:07.773Z,100535.19
2023-04-26T19:48:10.034Z,100539.38
2023-04-26T19:53:11.302Z,100540.19
2023-04-26T19:58:12.530Z,100545.19
2023-04-26T20:03:13.841Z,100547.28
2023-04-26T20:08:15.156Z,100555.13
2023-04-26T20:13:16.670Z,100561.94
2023-04-26T20:18:17.853Z,100561.44
2023-04-26T20:23:19.066Z,100572.94
2023-04-26T20:28:20.388Z,100564.56
2023-04-26T20:33:21.828Z,100567.97
2023-04-26T20:38:23.285Z,100570.84
2023-04-26T20:43:24.549Z,100561.44
2023-04-26T20:48:25.762Z,100566.41
2023-04-26T20:53:26.998Z,100562.50
2023-04-26T20:58:29.741Z,100566.41
2023-04-26T21:03:32.383Z,100555.19
2023-04-26T21:08:35.346Z,100560.44
2023-04-26T21:13:37.968Z,100561.47
2023-04-26T21:18:39.115Z,100553.63
2023-04-26T21:23:40.426Z,100563.06
2023-04-26T21:28:41.675Z,100563.09
2023-04-26T21:33:42.893Z,100564.38
2023-04-26T21:38:44.039Z,100562.84
2023-04-26T21:43:45.554Z,100572.47
2023-04-26T21:48:46.722Z,100570.94
2023-04-26T21:53:47.895Z,100569.34
2023-04-26T21:58:49.115Z,100567.25
2023-04-26T22:03:50.342Z,100518.66
2023-04-26T22:08:51.557Z,100567.53
2023-04-26T22:13:52.702Z,100569.38
2023-04-26T22:18:54.008Z,100578.78
2023-04-26T22:23:55.364Z,100575.63
2023-04-26T22:28:56.575Z,100570.41
2023-04-26T22:33:57.758Z,100573.03
2023-04-26T22:38:59.482Z,100580.84
2023-04-26T22:44:00.845Z,100579.81
2023-04-26T22:49:02.012Z,100585.56
2023-04-26T22:54:04.222Z,100581.13
2023-04-26T22:59:05.595Z,100588.44
2023-04-26T23:04:06.854Z,100588.44
2023-04-26T23:09:08.612Z,100593.66
2023-04-26T23:14:10.105Z,100597.03
2023-04-26T23:19:11.509Z,100592.03
2023-04-26T23:24:12.940Z,100596.97
2023-04-26T23:29:14.374Z,100604.78
2023-04-26T23:34:15.897Z,100600.03
2023-04-26T23:39:17.657Z,100598.97
2023-04-26T23:44:18.793Z,100599.47
2023-04-26T23:49:20.006Z,100598.13
2023-04-26T23:54:21.189Z,100597.34
2023-04-26T23:59:23.131Z,100605.16
